Flight Track Log - Related Links

Times and Time Zones

All times are in EDT time to prevent confusion due to time zone crossing. See the KAP550 flight status page for this flight to view local times or setup timezone preferences in your user account.

Time Position Orientation Groundspeed Altitude Reporting Facility
EDT Latitude Longitude Course Direction KTS MPH feet Rate Location/Type
Mon 01:16:20 PM 44.8217 -74.8544 160° South 151 174 5,900  Level Boston Center
Mon 01:17:20 PM 44.7842 -74.8414 166° South 146 168 7,100 1,250 Climbing Boston Center
Mon 01:18:20 PM 44.7472 -74.8222 160° South 141 162 8,400 1,050 Climbing Boston Center
Mon 01:19:20 PM 44.7103 -74.7944 152° Southeast 141 162 9,200 400 Climbing Boston Center
Mon 01:20:00 PM 44.7026 -74.7263 160° South  Level FlightAware Approximate
Mon 01:20:20 PM 44.6647 -74.7750 163° South 159 183 9,200  Level Boston Center
Mon 01:21:20 PM 44.6133 -74.7497 161° South 184 212 9,200  Level Boston Center
Mon 01:22:20 PM 44.5658 -74.7244 159° South 189 217 9,200  Level Boston Center
Mon 01:23:20 PM 44.5142 -74.6992 161° South 189 217 9,200  Level Boston Center
Mon 01:24:20 PM 44.4667 -74.6742 159° South 189 217 9,200  Level Boston Center
Mon 01:25:20 PM 44.4194 -74.6461 157° South 189 217 9,200  Level Boston Center
Mon 01:26:20 PM 44.3719 -74.6269 164° South 189 217 9,200  Level Boston Center
Mon 01:27:20 PM 44.3264 -74.5992 156° South 189 217 9,200 50 Level Boston Center
Mon 01:28:20 PM 44.2792 -74.5742 159° South 189 217 9,300 50 Climbing Boston Center
Mon 01:29:20 PM 44.2317 -74.5494 160° South 189 217 9,300  Level Boston Center
Mon 01:30:20 PM 44.1778 -74.5214 160° South 189 217 9,300 -50 Level Boston Center
Mon 01:31:20 PM 44.1303 -74.4994 162° South 184 212 9,200 -100 Descending Boston Center
Mon 01:32:20 PM 44.0828 -74.4778 162° South 184 212 9,100 -50 Descending Boston Center
Mon 01:33:20 PM 44.0353 -74.4500 157° South 184 212 9,100  Level Boston Center
Mon 01:34:20 PM 43.9858 -74.4253 160° South 184 212 9,100 50 Level Boston Center
Mon 01:35:20 PM 43.9361 -74.4006 160° South 184 212 9,200 100 Climbing Boston Center
Mon 01:36:20 PM 43.8928 -74.3761 158° South 184 212 9,300 50 Climbing Boston Center
Mon 01:37:20 PM 43.8475 -74.3544 161° South 184 212 9,300 -100 Level Boston Center
Mon 01:38:20 PM 43.8019 -74.3328 161° South 179 206 9,100 -50 Descending Boston Center
Mon 01:39:20 PM 43.7564 -74.3083 159° South 179 206 9,200 50 Climbing Boston Center
Mon 01:40:20 PM 43.7108 -74.2869 161° South 179 206 9,200  Level Boston Center
Mon 01:41:20 PM 43.6675 -74.2656 160° South 174 200 9,200  Level Boston Center
Mon 01:42:20 PM 43.6242 -74.2442 160° South 169 194 9,200  Level Boston Center
Mon 01:43:32 PM 43.5808 -74.2200 158° South 164 189 9,200  Level Boston Center
Mon 01:44:32 PM 43.5269 -74.1925 160° South 164 189 9,200  Level Boston Center
Mon 01:45:32 PM 43.4814 -74.1683 159° South 164 189 9,200  Level Boston Center
Mon 01:45:56 PM 43.4628 -74.1622 167° South 175 201 9,200  Level Boston Center
Mon 01:46:32 PM 43.4358 -74.1469 158° South 169 194 9,200  Level Boston Center
Mon 01:47:32 PM 43.3906 -74.1200 157° South 169 194 9,200  Level Boston Center
Mon 01:48:32 PM 43.3450 -74.0989 161° South 174 200 9,200 -100 Level Boston Center
Mon 01:49:32 PM 43.3139 -74.0836 160° South 174 200 9,000 -450 Descending Boston Center
Mon 01:50:32 PM 43.2478 -74.0506 160° South 187 215 8,300 -650 Descending Boston Center
Mon 01:51:32 PM 43.1958 -74.0264 161° South 192 221 7,700 -646 Descending Boston Center
Mon 01:52:42 PM 43.1400 -73.9964 159° South 187 215 6,900 -700 Descending Boston Center
Mon 01:53:32 PM 43.0986 -73.9697 155° Southeast 192 221 6,300 -645 Descending Boston Center
Mon 01:54:43 PM 43.0450 -73.9289 151° Southeast 189 217 5,600 -700 Descending Boston Center
Mon 01:55:32 PM 43.0081 -73.8967 147° Southeast 192 221 4,900 -716 Descending Boston Center
Mon 01:56:32 PM 42.9625 -73.8586 149° Southeast 197 227 4,300 -700 Descending Boston Center
Mon 01:57:32 PM 42.9192 -73.8264 151° Southeast 197 227 3,500 -896 Descending Boston Center
Mon 01:58:46 PM 42.8592 -73.7939 158° South 187 215 2,300 -756 Descending Boston Center
Mon 01:59:47 PM 42.8072 -73.7758 166° South 178 205 1,800 3,407 Descending Boston Center
Mon 02:00:44 PM 42.7536 -73.7267 146° Southeast 197 227 9,000 7,579 Climbing Boston Center
Mon 02:02:00 PM 42.7333 -73.8000 170° South  Level FlightAware Approximate
Mon 02:09:00 PM 42.7491 -73.8020 170° South  Level Estimated
Mon 02:10:00 PM 42.7491 -73.8020 170° South  Level Estimated
Mon 02:11:00 PM 42.7491 -73.8020 170° South  Level Estimated

Login

Don't have an account? Register now (free) for customized features, flight alerts, and more!